sensor_id;sensor_type;location;lat;lon;timestamp;pressure;altitude;pressure_sealevel;temperature;humidity
21900;BME280;11114;50.658;12.704;2024-02-26T17:14:36;94991.50;;;4.20;65.31
21900;BME280;11114;50.658;12.704;2024-02-26T17:17:25;94998.31;;;4.21;66.47
21900;BME280;11114;50.658;12.704;2024-02-26T17:20:11;94994.41;;;4.25;67.66
21900;BME280;11114;50.658;12.704;2024-02-26T17:22:58;94988.19;;;4.34;67.86
21900;BME280;11114;50.658;12.704;2024-02-26T17:25:45;94994.28;;;4.49;67.83
21900;BME280;11114;50.658;12.704;2024-02-26T17:28:32;95001.53;;;4.62;67.69
21900;BME280;11114;50.658;12.704;2024-02-26T17:31:18;95006.59;;;4.55;67.45
21900;BME280;11114;50.658;12.704;2024-02-26T17:34:05;95004.66;;;4.49;67.88
21900;BME280;11114;50.658;12.704;2024-02-26T17:36:52;95002.75;;;4.43;68.12
21900;BME280;11114;50.658;12.704;2024-02-26T17:39:39;95012.34;;;4.43;68.22
21900;BME280;11114;50.658;12.704;2024-02-26T17:42:28;95014.78;;;4.44;68.15
21900;BME280;11114;50.658;12.704;2024-02-26T17:45:14;95019.50;;;4.41;68.42
21900;BME280;11114;50.658;12.704;2024-02-26T17:48:01;95019.19;;;4.36;68.48
21900;BME280;11114;50.658;12.704;2024-02-26T17:50:48;95019.06;;;4.29;68.54
21900;BME280;11114;50.658;12.704;2024-02-26T17:53:34;95023.66;;;4.19;68.83
21900;BME280;11114;50.658;12.704;2024-02-26T17:56:21;95019.59;;;4.17;68.81
21900;BME280;11114;50.658;12.704;2024-02-26T17:59:08;95018.59;;;4.18;68.64
21900;BME280;11114;50.658;12.704;2024-02-26T18:01:54;95024.16;;;4.15;68.91
21900;BME280;11114;50.658;12.704;2024-02-26T18:09:46;95024.44;;;4.20;68.29
21900;BME280;11114;50.658;12.704;2024-02-26T18:12:57;95038.28;;;4.12;68.18
21900;BME280;11114;50.658;12.704;2024-02-26T18:15:45;95038.28;;;4.12;68.22
21900;BME280;11114;50.658;12.704;2024-02-26T18:18:33;95036.19;;;4.08;68.46
21900;BME280;11114;50.658;12.704;2024-02-26T18:21:20;95041.69;;;4.13;68.16
21900;BME280;11114;50.658;12.704;2024-02-26T18:24:08;95045.56;;;4.17;68.13
21900;BME280;11114;50.658;12.704;2024-02-26T18:26:54;95052.22;;;4.19;67.71
21900;BME280;11114;50.658;12.704;2024-02-26T18:29:41;95061.44;;;4.22;67.65
21900;BME280;11114;50.658;12.704;2024-02-26T18:32:27;95061.78;;;4.19;67.50
21900;BME280;11114;50.658;12.704;2024-02-26T18:35:14;95069.28;;;4.14;67.26
21900;BME280;11114;50.658;12.704;2024-02-26T18:38:01;95069.78;;;4.09;67.59
21900;BME280;11114;50.658;12.704;2024-02-26T18:40:48;95082.09;;;4.07;67.24
21900;BME280;11114;50.658;12.704;2024-02-26T18:43:42;95084.69;;;4.07;66.94
21900;BME280;11114;50.658;12.704;2024-02-26T18:46:28;95084.69;;;4.07;66.75
21900;BME280;11114;50.658;12.704;2024-02-26T18:49:15;95091.34;;;4.10;66.71
21900;BME280;11114;50.658;12.704;2024-02-26T18:52:03;95085.06;;;4.04;66.30
21900;BME280;11114;50.658;12.704;2024-02-26T18:54:50;95089.13;;;3.91;65.84
21900;BME280;11114;50.658;12.704;2024-02-26T18:57:36;95096.09;;;3.82;66.57
21900;BME280;11114;50.658;12.704;2024-02-26T19:00:26;95098.03;;;3.81;66.91
21900;BME280;11114;50.658;12.704;2024-02-26T19:03:14;95101.63;;;3.80;66.69
21900;BME280;11114;50.658;12.704;2024-02-26T19:06:00;95102.44;;;3.80;66.42
21900;BME280;11114;50.658;12.704;2024-02-26T19:08:49;95103.91;;;3.75;66.21
21900;BME280;11114;50.658;12.704;2024-02-26T19:11:36;95105.03;;;3.72;66.23
21900;BME280;11114;50.658;12.704;2024-02-26T19:14:23;95110.72;;;3.68;66.28
21900;BME280;11114;50.658;12.704;2024-02-26T19:17:10;95112.66;;;3.58;65.68
21900;BME280;11114;50.658;12.704;2024-02-26T19:20:01;95120.44;;;3.50;66.20
21900;BME280;11114;50.658;12.704;2024-02-26T19:22:48;95113.31;;;3.52;66.38
21900;BME280;11114;50.658;12.704;2024-02-26T19:25:34;95123.03;;;3.50;66.09
21900;BME280;11114;50.658;12.704;2024-02-26T19:28:23;95125.28;;;3.45;65.60
21900;BME280;11114;50.658;12.704;2024-02-26T19:31:10;95126.25;;;3.44;65.79
21900;BME280;11114;50.658;12.704;2024-02-26T19:33:58;95131.97;;;3.47;65.84
21900;BME280;11114;50.658;12.704;2024-02-26T19:36:46;95134.56;;;3.47;65.66
21900;BME280;11114;50.658;12.704;2024-02-26T19:39:33;95140.06;;;3.44;65.69
21900;BME280;11114;50.658;12.704;2024-02-26T19:42:19;95147.97;;;3.35;65.65
21900;BME280;11114;50.658;12.704;2024-02-26T19:45:07;95148.78;;;3.19;66.48
21900;BME280;11114;50.658;12.704;2024-02-26T19:47:55;95159.28;;;3.10;66.96
21900;BME280;11114;50.658;12.704;2024-02-26T19:50:43;95162.53;;;3.12;67.31
21900;BME280;11114;50.658;12.704;2024-02-26T19:53:31;95166.09;;;3.19;67.19
21900;BME280;11114;50.658;12.704;2024-02-26T19:56:18;95160.44;;;3.23;66.94
21900;BME280;11114;50.658;12.704;2024-02-26T19:59:06;95158.00;;;3.22;66.66
21900;BME280;11114;50.658;12.704;2024-02-26T20:01:53;95162.84;;;3.17;67.01
21900;BME280;11114;50.658;12.704;2024-02-26T20:04:40;95168.03;;;3.17;67.20
21900;BME280;11114;50.658;12.704;2024-02-26T20:07:26;95168.03;;;3.17;67.25
21900;BME280;11114;50.658;12.704;2024-02-26T20:10:14;95163.84;;;3.16;66.91
21900;BME280;11114;50.658;12.704;2024-02-26T20:13:01;95169.63;;;3.10;67.44
21900;BME280;11114;50.658;12.704;2024-02-26T20:15:48;95177.91;;;3.05;67.53
21900;BME280;11114;50.658;12.704;2024-02-26T20:18:34;95189.41;;;3.03;67.75
21900;BME280;11114;50.658;12.704;2024-02-26T20:21:22;95185.19;;;3.02;67.63
21900;BME280;11114;50.658;12.704;2024-02-26T20:24:09;95195.25;;;3.05;67.85
21900;BME280;11114;50.658;12.704;2024-02-26T20:26:55;95194.28;;;3.06;67.77
21900;BME280;11114;50.658;12.704;2024-02-26T20:29:42;95189.56;;;3.02;67.84
21900;BME280;11114;50.658;12.704;2024-02-26T20:32:29;95197.16;;;2.95;68.11
21900;BME280;11114;50.658;12.704;2024-02-26T20:35:16;95196.16;;;2.88;68.17
21900;BME280;11114;50.658;12.704;2024-02-26T20:38:03;95195.97;;;2.82;68.79
21900;BME280;11114;50.658;12.704;2024-02-26T20:40:50;95195.78;;;2.83;69.01
21900;BME280;11114;50.658;12.704;2024-02-26T20:43:36;95195.19;;;2.89;68.89
21900;BME280;11114;50.658;12.704;2024-02-26T20:46:23;95195.34;;;2.96;69.13
21900;BME280;11114;50.658;12.704;2024-02-26T20:49:10;95205.59;;;2.97;69.13
21900;BME280;11114;50.658;12.704;2024-02-26T20:51:56;95210.13;;;3.03;69.50
21900;BME280;11114;50.658;12.704;2024-02-26T20:54:43;95210.63;;;3.06;69.38
21900;BME280;11114;50.658;12.704;2024-02-26T20:57:30;95225.38;;;3.06;69.35
21900;BME280;11114;50.658;12.704;2024-02-26T21:00:17;95224.25;;;3.08;69.42
21900;BME280;11114;50.658;12.704;2024-02-26T21:03:08;95220.22;;;3.14;69.37
21900;BME280;11114;50.658;12.704;2024-02-26T21:05:55;95226.72;;;3.18;69.48
21900;BME280;11114;50.658;12.704;2024-02-26T21:08:43;95231.28;;;3.24;69.14
